sensor_id;sensor_type;location;lat;lon;timestamp;temperature;humidity
31515;DHT22;40526;52.088;17.020;2024-03-23T00:55:43;9.60;99.90
31515;DHT22;40526;52.088;17.020;2024-03-23T01:05:48;9.60;99.90
31515;DHT22;40526;52.088;17.020;2024-03-23T01:10:56;9.60;99.90
31515;DHT22;40526;52.088;17.020;2024-03-23T01:15:58;9.60;99.90
31515;DHT22;40526;52.088;17.020;2024-03-23T01:21:01;9.60;99.90
31515;DHT22;40526;52.088;17.020;2024-03-23T01:26:04;9.60;99.90
31515;DHT22;40526;52.088;17.020;2024-03-23T01:31:07;9.50;99.90
31515;DHT22;40526;52.088;17.020;2024-03-23T01:36:09;9.50;99.90
31515;DHT22;40526;52.088;17.020;2024-03-23T01:41:13;9.60;99.90
31515;DHT22;40526;52.088;17.020;2024-03-23T01:46:15;9.60;99.90
31515;DHT22;40526;52.088;17.020;2024-03-23T01:51:17;9.60;99.90
31515;DHT22;40526;52.088;17.020;2024-03-23T01:56:21;9.60;99.90
31515;DHT22;40526;52.088;17.020;2024-03-23T02:01:24;9.50;99.90
31515;DHT22;40526;52.088;17.020;2024-03-23T02:06:26;9.60;99.90
31515;DHT22;40526;52.088;17.020;2024-03-23T02:11:30;9.60;99.90
31515;DHT22;40526;52.088;17.020;2024-03-23T02:16:32;9.70;99.90
31515;DHT22;40526;52.088;17.020;2024-03-23T02:21:35;9.70;99.90
31515;DHT22;40526;52.088;17.020;2024-03-23T02:26:38;9.70;99.90
31515;DHT22;40526;52.088;17.020;2024-03-23T02:31:40;9.70;99.90
31515;DHT22;40526;52.088;17.020;2024-03-23T02:36:42;9.70;99.90
31515;DHT22;40526;52.088;17.020;2024-03-23T02:41:46;9.70;99.90
31515;DHT22;40526;52.088;17.020;2024-03-23T02:46:49;9.60;99.90
31515;DHT22;40526;52.088;17.020;2024-03-23T02:51:51;9.60;99.90
31515;DHT22;40526;52.088;17.020;2024-03-23T02:56:55;9.60;99.90
31515;DHT22;40526;52.088;17.020;2024-03-23T03:01:58;9.60;99.90
31515;DHT22;40526;52.088;17.020;2024-03-23T03:07:00;9.60;99.90
31515;DHT22;40526;52.088;17.020;2024-03-23T03:12:05;9.60;99.90
31515;DHT22;40526;52.088;17.020;2024-03-23T03:17:07;9.60;99.90
31515;DHT22;40526;52.088;17.020;2024-03-23T03:22:09;9.50;99.90
31515;DHT22;40526;52.088;17.020;2024-03-23T03:27:13;9.50;99.90
31515;DHT22;40526;52.088;17.020;2024-03-23T03:32:15;9.50;99.90
31515;DHT22;40526;52.088;17.020;2024-03-23T03:37:18;9.50;99.90
31515;DHT22;40526;52.088;17.020;2024-03-23T03:42:21;9.50;99.90
31515;DHT22;40526;52.088;17.020;2024-03-23T03:47:24;9.70;99.90
31515;DHT22;40526;52.088;17.020;2024-03-23T03:52:26;9.40;99.90
31515;DHT22;40526;52.088;17.020;2024-03-23T03:57:30;11.10;99.90
31515;DHT22;40526;52.088;17.020;2024-03-23T04:02:32;9.40;99.90
31515;DHT22;40526;52.088;17.020;2024-03-23T04:12:38;9.50;99.90
31515;DHT22;40526;52.088;17.020;2024-03-23T04:22:43;9.40;99.90
31515;DHT22;40526;52.088;17.020;2024-03-23T04:27:47;9.40;99.90
31515;DHT22;40526;52.088;17.020;2024-03-23T04:32:49;9.40;99.90
31515;DHT22;40526;52.088;17.020;2024-03-23T04:37:52;9.40;99.90
31515;DHT22;40526;52.088;17.020;2024-03-23T04:42:58;9.30;99.90
31515;DHT22;40526;52.088;17.020;2024-03-23T04:48:01;9.30;99.90
31515;DHT22;40526;52.088;17.020;2024-03-23T04:53:04;9.30;99.90
31515;DHT22;40526;52.088;17.020;2024-03-23T04:58:08;9.20;99.90
31515;DHT22;40526;52.088;17.020;2024-03-23T05:03:10;9.20;99.90
31515;DHT22;40526;52.088;17.020;2024-03-23T05:08:12;9.20;99.90
31515;DHT22;40526;52.088;17.020;2024-03-23T05:13:16;9.20;99.90
31515;DHT22;40526;52.088;17.020;2024-03-23T05:18:18;9.20;99.90
31515;DHT22;40526;52.088;17.020;2024-03-23T05:23:21;9.20;99.90
31515;DHT22;40526;52.088;17.020;2024-03-23T05:28:25;9.30;99.90
31515;DHT22;40526;52.088;17.020;2024-03-23T05:33:27;9.30;99.90
31515;DHT22;40526;52.088;17.020;2024-03-23T05:38:29;9.30;99.90
31515;DHT22;40526;52.088;17.020;2024-03-23T05:43:33;9.30;99.90
31515;DHT22;40526;52.088;17.020;2024-03-23T05:53:37;9.40;99.90
31515;DHT22;40526;52.088;17.020;2024-03-23T05:58:41;9.20;99.90
31515;DHT22;40526;52.088;17.020;2024-03-23T06:03:44;9.50;99.90
31515;DHT22;40526;52.088;17.020;2024-03-23T06:08:46;9.80;99.90
31515;DHT22;40526;52.088;17.020;2024-03-23T06:13:50;9.90;99.90
31515;DHT22;40526;52.088;17.020;2024-03-23T06:18:52;9.90;99.90
31515;DHT22;40526;52.088;17.020;2024-03-23T06:23:55;10.00;99.90
31515;DHT22;40526;52.088;17.020;2024-03-23T06:28:59;10.00;99.90
31515;DHT22;40526;52.088;17.020;2024-03-23T06:34:01;10.00;99.90
31515;DHT22;40526;52.088;17.020;2024-03-23T06:39:03;10.10;99.90
31515;DHT22;40526;52.088;17.020;2024-03-23T06:44:07;10.30;99.90
31515;DHT22;40526;52.088;17.020;2024-03-23T06:49:10;10.40;99.90
31515;DHT22;40526;52.088;17.020;2024-03-23T06:54:12;10.50;99.90
31515;DHT22;40526;52.088;17.020;2024-03-23T06:59:16;10.60;99.90
31515;DHT22;40526;52.088;17.020;2024-03-23T07:04:18;10.60;99.90
31515;DHT22;40526;52.088;17.020;2024-03-23T07:09:20;10.60;99.90
31515;DHT22;40526;52.088;17.020;2024-03-23T07:14:28;10.70;99.90
31515;DHT22;40526;52.088;17.020;2024-03-23T07:19:30;10.90;99.90
31515;DHT22;40526;52.088;17.020;2024-03-23T07:24:32;11.10;99.90
31515;DHT22;40526;52.088;17.020;2024-03-23T07:29:36;11.30;99.90
31515;DHT22;40526;52.088;17.020;2024-03-23T07:34:38;11.30;99.90
31515;DHT22;40526;52.088;17.020;2024-03-23T07:39:41;11.40;99.90
31515;DHT22;40526;52.088;17.020;2024-03-23T07:44:44;11.70;99.90
31515;DHT22;40526;52.088;17.020;2024-03-23T07:49:47;12.00;99.90
31515;DHT22;40526;52.088;17.020;2024-03-23T07:54:50;12.40;99.90
31515;DHT22;40526;52.088;17.020;2024-03-23T07:59:53;12.70;99.90
31515;DHT22;40526;52.088;17.020;2024-03-23T08:04:56;12.80;99.90
31515;DHT22;40526;52.088;17.020;2024-03-23T08:09:59;12.80;99.90
31515;DHT22;40526;52.088;17.020;2024-03-23T08:15:07;12.90;99.90
31515;DHT22;40526;52.088;17.020;2024-03-23T08:20:10;12.90;99.90
31515;DHT22;40526;52.088;17.020;2024-03-23T08:25:13;12.80;99.90
31515;DHT22;40526;52.088;17.020;2024-03-23T08:30:16;12.70;99.90
31515;DHT22;40526;52.088;17.020;2024-03-23T08:35:19;12.50;99.90
31515;DHT22;40526;52.088;17.020;2024-03-23T08:40:21;12.00;99.90
31515;DHT22;40526;52.088;17.020;2024-03-23T08:45:25;11.70;99.90
31515;DHT22;40526;52.088;17.020;2024-03-23T08:50:28;11.50;99.90
31515;DHT22;40526;52.088;17.020;2024-03-23T08:55:30;11.30;99.90
31515;DHT22;40526;52.088;17.020;2024-03-23T09:00:34;11.20;99.90
31515;DHT22;40526;52.088;17.020;2024-03-23T09:05:39;10.80;99.90
31515;DHT22;40526;52.088;17.020;2024-03-23T09:10:42;10.80;99.90
31515;DHT22;40526;52.088;17.020;2024-03-23T09:15:50;11.20;99.90
31515;DHT22;40526;52.088;17.020;2024-03-23T09:20:57;11.30;99.90
31515;DHT22;40526;52.088;17.020;2024-03-23T09:26:03;11.50;99.90
31515;DHT22;40526;52.088;17.020;2024-03-23T09:31:08;11.60;99.90
31515;DHT22;40526;52.088;17.020;2024-03-23T09:36:10;11.40;99.90
31515;DHT22;40526;52.088;17.020;2024-03-23T09:41:14;10.80;99.90
31515;DHT22;40526;52.088;17.020;2024-03-23T09:46:17;10.50;99.90
31515;DHT22;40526;52.088;17.020;2024-03-23T09:51:20;10.40;99.90
31515;DHT22;40526;52.088;17.020;2024-03-23T09:56:22;10.30;99.90
31515;DHT22;40526;52.088;17.020;2024-03-23T10:01:26;10.20;99.90
31515;DHT22;40526;52.088;17.020;2024-03-23T10:06:28;10.00;99.90
31515;DHT22;40526;52.088;17.020;2024-03-23T10:11:31;9.70;99.90
31515;DHT22;40526;52.088;17.020;2024-03-23T10:16:34;9.70;99.90
31515;DHT22;40526;52.088;17.020;2024-03-23T10:21:37;9.80;99.90
31515;DHT22;40526;52.088;17.020;2024-03-23T10:26:41;9.70;99.90
31515;DHT22;40526;52.088;17.020;2024-03-23T10:31:45;9.80;99.90
31515;DHT22;40526;52.088;17.020;2024-03-23T10:36:48;9.80;99.90
31515;DHT22;40526;52.088;17.020;2024-03-23T10:41:51;9.60;99.90
31515;DHT22;40526;52.088;17.020;2024-03-23T10:46:57;9.50;99.90
31515;DHT22;40526;52.088;17.020;2024-03-23T10:52:03;9.50;99.90
31515;DHT22;40526;52.088;17.020;2024-03-23T10:57:09;9.50;99.90
31515;DHT22;40526;52.088;17.020;2024-03-23T11:02:20;9.60;99.90
31515;DHT22;40526;52.088;17.020;2024-03-23T11:07:30;9.60;99.90
31515;DHT22;40526;52.088;17.020;2024-03-23T11:12:33;9.70;99.90
31515;DHT22;40526;52.088;17.020;2024-03-23T11:17:37;9.60;99.90
31515;DHT22;40526;52.088;17.020;2024-03-23T11:22:43;9.50;99.90
31515;DHT22;40526;52.088;17.020;2024-03-23T11:27:48;9.50;99.90
31515;DHT22;40526;52.088;17.020;2024-03-23T11:32:53;9.40;99.90
31515;DHT22;40526;52.088;17.020;2024-03-23T11:38:03;9.40;99.90
31515;DHT22;40526;52.088;17.020;2024-03-23T11:43:06;9.60;99.90
31515;DHT22;40526;52.088;17.020;2024-03-23T11:48:11;9.50;99.90
31515;DHT22;40526;52.088;17.020;2024-03-23T11:53:15;9.50;99.90
31515;DHT22;40526;52.088;17.020;2024-03-23T11:58:18;9.40;99.90
31515;DHT22;40526;52.088;17.020;2024-03-23T12:03:24;9.40;99.90
31515;DHT22;40526;52.088;17.020;2024-03-23T12:08:30;9.30;99.90
31515;DHT22;40526;52.088;17.020;2024-03-23T12:13:33;9.30;99.90
31515;DHT22;40526;52.088;17.020;2024-03-23T12:18:37;9.40;99.90
31515;DHT22;40526;52.088;17.020;2024-03-23T12:23:40;9.30;99.90
31515;DHT22;40526;52.088;17.020;2024-03-23T12:28:43;9.30;99.90
31515;DHT22;40526;52.088;17.020;2024-03-23T12:33:47;9.50;99.90
31515;DHT22;40526;52.088;17.020;2024-03-23T12:38:49;9.50;99.90
31515;DHT22;40526;52.088;17.020;2024-03-23T12:43:52;9.20;99.90
31515;DHT22;40526;52.088;17.020;2024-03-23T12:48:56;9.20;99.90
31515;DHT22;40526;52.088;17.020;2024-03-23T12:53:59;9.40;99.90
31515;DHT22;40526;52.088;17.020;2024-03-23T12:59:01;9.30;99.90
31515;DHT22;40526;52.088;17.020;2024-03-23T13:04:05;9.30;99.90
31515;DHT22;40526;52.088;17.020;2024-03-23T13:09:10;9.20;99.90
31515;DHT22;40526;52.088;17.020;2024-03-23T13:14:12;9.10;99.90
31515;DHT22;40526;52.088;17.020;2024-03-23T13:19:18;9.00;99.90
31515;DHT22;40526;52.088;17.020;2024-03-23T13:24:22;9.10;99.90
31515;DHT22;40526;52.088;17.020;2024-03-23T13:29:25;8.90;99.90
31515;DHT22;40526;52.088;17.020;2024-03-23T13:34:29;8.90;99.90
31515;DHT22;40526;52.088;17.020;2024-03-23T13:39:31;8.50;99.90
31515;DHT22;40526;52.088;17.020;2024-03-23T13:44:33;8.10;99.90
31515;DHT22;40526;52.088;17.020;2024-03-23T13:49:38;7.70;99.90
31515;DHT22;40526;52.088;17.020;2024-03-23T13:54:41;7.40;99.90
31515;DHT22;40526;52.088;17.020;2024-03-23T13:59:47;7.00;99.90
31515;DHT22;40526;52.088;17.020;2024-03-23T14:04:51;7.00;99.90
31515;DHT22;40526;52.088;17.020;2024-03-23T14:09:53;6.90;99.90
31515;DHT22;40526;52.088;17.020;2024-03-23T14:14:56;6.70;99.90
31515;DHT22;40526;52.088;17.020;2024-03-23T14:19:59;6.60;99.90
31515;DHT22;40526;52.088;17.020;2024-03-23T14:25:02;6.50;99.90
31515;DHT22;40526;52.088;17.020;2024-03-23T14:30:06;6.30;99.90
31515;DHT22;40526;52.088;17.020;2024-03-23T14:35:10;6.10;99.90
31515;DHT22;40526;52.088;17.020;2024-03-23T14:40:13;6.10;99.90
31515;DHT22;40526;52.088;17.020;2024-03-23T14:45:15;6.20;99.90
31515;DHT22;40526;52.088;17.020;2024-03-23T14:50:19;6.20;99.90
31515;DHT22;40526;52.088;17.020;2024-03-23T14:55:22;6.40;99.90
31515;DHT22;40526;52.088;17.020;2024-03-23T15:00:24;6.30;99.90
31515;DHT22;40526;52.088;17.020;2024-03-23T15:05:28;6.20;99.90
31515;DHT22;40526;52.088;17.020;2024-03-23T15:10:32;5.90;99.90
31515;DHT22;40526;52.088;17.020;2024-03-23T15:15:38;5.70;99.90
31515;DHT22;40526;52.088;17.020;2024-03-23T15:20:52;5.50;99.90
31515;DHT22;40526;52.088;17.020;2024-03-23T15:25:54;5.40;99.90
31515;DHT22;40526;52.088;17.020;2024-03-23T15:30:59;5.40;99.90
31515;DHT22;40526;52.088;17.020;2024-03-23T15:36:03;5.40;99.90
31515;DHT22;40526;52.088;17.020;2024-03-23T15:41:06;5.40;99.90
31515;DHT22;40526;52.088;17.020;2024-03-23T15:46:08;5.40;99.90
31515;DHT22;40526;52.088;17.020;2024-03-23T15:51:13;5.50;99.90
31515;DHT22;40526;52.088;17.020;2024-03-23T15:56:15;5.40;99.90
31515;DHT22;40526;52.088;17.020;2024-03-23T16:01:18;5.50;99.90
31515;DHT22;40526;52.088;17.020;2024-03-23T16:06:21;5.50;99.90
31515;DHT22;40526;52.088;17.020;2024-03-23T16:11:24;5.50;99.90
31515;DHT22;40526;52.088;17.020;2024-03-23T16:16:26;5.50;99.90
31515;DHT22;40526;52.088;17.020;2024-03-23T16:21:29;5.50;99.90
31515;DHT22;40526;52.088;17.020;2024-03-23T16:26:32;5.40;99.90
31515;DHT22;40526;52.088;17.020;2024-03-23T16:31:34;5.40;99.90
31515;DHT22;40526;52.088;17.020;2024-03-23T16:36:37;5.40;99.90
31515;DHT22;40526;52.088;17.020;2024-03-23T16:41:40;5.40;99.90
31515;DHT22;40526;52.088;17.020;2024-03-23T16:46:42;5.30;99.90
31515;DHT22;40526;52.088;17.020;2024-03-23T16:51:46;5.30;99.90
31515;DHT22;40526;52.088;17.020;2024-03-23T16:56:50;5.30;99.90
31515;DHT22;40526;52.088;17.020;2024-03-23T17:01:52;5.20;99.90
31515;DHT22;40526;52.088;17.020;2024-03-23T17:06:56;5.30;99.90
31515;DHT22;40526;52.088;17.020;2024-03-23T17:11:58;5.20;99.90
31515;DHT22;40526;52.088;17.020;2024-03-23T17:17:00;5.20;99.90
31515;DHT22;40526;52.088;17.020;2024-03-23T17:22:04;5.20;99.90
31515;DHT22;40526;52.088;17.020;2024-03-23T17:27:07;5.20;99.90
31515;DHT22;40526;52.088;17.020;2024-03-23T17:32:11;5.10;99.90
31515;DHT22;40526;52.088;17.020;2024-03-23T17:37:15;5.10;99.90
31515;DHT22;40526;52.088;17.020;2024-03-23T17:42:19;5.10;99.90
31515;DHT22;40526;52.088;17.020;2024-03-23T17:47:21;5.00;99.90
31515;DHT22;40526;52.088;17.020;2024-03-23T17:52:25;5.00;99.90
31515;DHT22;40526;52.088;17.020;2024-03-23T17:57:27;5.00;99.90
31515;DHT22;40526;52.088;17.020;2024-03-23T18:02:30;5.00;99.90
31515;DHT22;40526;52.088;17.020;2024-03-23T18:07:34;4.90;99.90
31515;DHT22;40526;52.088;17.020;2024-03-23T18:12:36;4.90;99.90
31515;DHT22;40526;52.088;17.020;2024-03-23T18:17:38;4.80;99.90
31515;DHT22;40526;52.088;17.020;2024-03-23T18:22:42;4.60;99.90
31515;DHT22;40526;52.088;17.020;2024-03-23T18:27:45;4.70;99.90
31515;DHT22;40526;52.088;17.020;2024-03-23T18:32:48;4.60;99.90
31515;DHT22;40526;52.088;17.020;2024-03-23T18:37:51;4.50;99.90
31515;DHT22;40526;52.088;17.020;2024-03-23T18:42:54;4.40;99.90
31515;DHT22;40526;52.088;17.020;2024-03-23T18:47:56;4.30;99.90
31515;DHT22;40526;52.088;17.020;2024-03-23T18:53:00;4.10;99.90
31515;DHT22;40526;52.088;17.020;2024-03-23T18:58:02;4.00;99.90
31515;DHT22;40526;52.088;17.020;2024-03-23T19:03:04;3.90;99.90
31515;DHT22;40526;52.088;17.020;2024-03-23T19:08:08;3.70;99.90
31515;DHT22;40526;52.088;17.020;2024-03-23T19:13:12;3.60;99.90
31515;DHT22;40526;52.088;17.020;2024-03-23T19:18:15;3.60;99.90
31515;DHT22;40526;52.088;17.020;2024-03-23T19:23:19;3.70;99.90
31515;DHT22;40526;52.088;17.020;2024-03-23T19:28:23;3.70;99.90
31515;DHT22;40526;52.088;17.020;2024-03-23T19:33:31;3.60;99.90
31515;DHT22;40526;52.088;17.020;2024-03-23T19:38:35;3.60;99.90
31515;DHT22;40526;52.088;17.020;2024-03-23T19:43:38;3.40;99.90
31515;DHT22;40526;52.088;17.020;2024-03-23T19:48:40;3.30;99.90
31515;DHT22;40526;52.088;17.020;2024-03-23T19:53:44;3.30;99.90
31515;DHT22;40526;52.088;17.020;2024-03-23T19:58:47;3.00;99.90
31515;DHT22;40526;52.088;17.020;2024-03-23T20:03:50;3.10;99.90
31515;DHT22;40526;52.088;17.020;2024-03-23T20:08:54;3.10;99.90
31515;DHT22;40526;52.088;17.020;2024-03-23T20:13:56;3.30;99.90
31515;DHT22;40526;52.088;17.020;2024-03-23T20:18:58;3.30;99.90
31515;DHT22;40526;52.088;17.020;2024-03-23T20:24:02;3.40;99.90
31515;DHT22;40526;52.088;17.020;2024-03-23T20:34:07;3.40;99.90
31515;DHT22;40526;52.088;17.020;2024-03-23T20:39:12;3.70;99.90
31515;DHT22;40526;52.088;17.020;2024-03-23T20:44:16;3.20;99.90
31515;DHT22;40526;52.088;17.020;2024-03-23T20:49:18;3.20;99.90
31515;DHT22;40526;52.088;17.020;2024-03-23T20:54:25;3.20;99.90
31515;DHT22;40526;52.088;17.020;2024-03-23T20:59:27;3.10;99.90
31515;DHT22;40526;52.088;17.020;2024-03-23T21:04:30;3.20;99.90
31515;DHT22;40526;52.088;17.020;2024-03-23T21:09:34;3.20;99.90
31515;DHT22;40526;52.088;17.020;2024-03-23T21:14:36;3.30;99.90
31515;DHT22;40526;52.088;17.020;2024-03-23T21:19:38;3.40;99.90
31515;DHT22;40526;52.088;17.020;2024-03-23T21:24:42;3.50;99.90
31515;DHT22;40526;52.088;17.020;2024-03-23T21:29:45;3.50;99.90
31515;DHT22;40526;52.088;17.020;2024-03-23T21:34:47;3.50;99.90
31515;DHT22;40526;52.088;17.020;2024-03-23T21:39:51;3.40;99.90
31515;DHT22;40526;52.088;17.020;2024-03-23T21:44:54;3.30;99.90
31515;DHT22;40526;52.088;17.020;2024-03-23T21:49:56;3.10;99.90
31515;DHT22;40526;52.088;17.020;2024-03-23T21:54:59;3.10;99.90
31515;DHT22;40526;52.088;17.020;2024-03-23T22:00:02;3.10;99.90
31515;DHT22;40526;52.088;17.020;2024-03-23T22:05:13;3.30;99.90
31515;DHT22;40526;52.088;17.020;2024-03-23T22:10:17;3.30;99.90
31515;DHT22;40526;52.088;17.020;2024-03-23T22:15:19;3.20;99.90
31515;DHT22;40526;52.088;17.020;2024-03-23T22:25:25;3.00;99.90
31515;DHT22;40526;52.088;17.020;2024-03-23T22:30:27;2.80;99.90
31515;DHT22;40526;52.088;17.020;2024-03-23T22:35:30;2.70;99.90
31515;DHT22;40526;52.088;17.020;2024-03-23T22:40:33;2.60;99.90
31515;DHT22;40526;52.088;17.020;2024-03-23T22:45:35;2.50;99.90
31515;DHT22;40526;52.088;17.020;2024-03-23T22:50:43;2.50;99.90
31515;DHT22;40526;52.088;17.020;2024-03-23T22:55:47;2.60;99.90
31515;DHT22;40526;52.088;17.020;2024-03-23T23:00:50;2.50;99.90
31515;DHT22;40526;52.088;17.020;2024-03-23T23:05:59;2.50;99.90
31515;DHT22;40526;52.088;17.020;2024-03-23T23:11:04;2.50;99.90
31515;DHT22;40526;52.088;17.020;2024-03-23T23:16:06;2.50;99.90
31515;DHT22;40526;52.088;17.020;2024-03-23T23:21:09;2.50;99.90
31515;DHT22;40526;52.088;17.020;2024-03-23T23:26:17;2.30;99.90
31515;DHT22;40526;52.088;17.020;2024-03-23T23:31:19;2.20;99.90
31515;DHT22;40526;52.088;17.020;2024-03-23T23:41:26;2.10;99.90
31515;DHT22;40526;52.088;17.020;2024-03-23T23:46:28;2.00;99.90
31515;DHT22;40526;52.088;17.020;2024-03-23T23:51:30;2.00;99.90
31515;DHT22;40526;52.088;17.020;2024-03-23T23:56:34;2.20;99.90
